sensor_id;sensor_type;location;lat;lon;timestamp;pressure;altitude;pressure_sealevel;temperature;humidity
65756;BME280;69208;47.502;18.940;2023-06-10T00:00:39;97766.34;;;16.82;100.00
65756;BME280;69208;47.502;18.940;2023-06-10T00:01:44;97763.38;;;16.83;100.00
65756;BME280;69208;47.502;18.940;2023-06-10T00:02:49;97760.87;;;16.75;100.00
65756;BME280;69208;47.502;18.940;2023-06-10T00:03:52;97765.50;;;16.78;100.00
65756;BME280;69208;47.502;18.940;2023-06-10T00:04:55;97762.50;;;16.79;100.00
65756;BME280;69208;47.502;18.940;2023-06-10T00:05:59;97757.97;;;16.80;100.00
65756;BME280;69208;47.502;18.940;2023-06-10T00:07:03;97762.09;;;16.77;100.00
65756;BME280;69208;47.502;18.940;2023-06-10T00:08:06;97760.00;;;16.71;100.00
65756;BME280;69208;47.502;18.940;2023-06-10T00:09:10;97762.19;;;16.81;100.00
65756;BME280;69208;47.502;18.940;2023-06-10T00:10:13;97756.91;;;16.81;100.00
65756;BME280;69208;47.502;18.940;2023-06-10T00:11:15;97764.59;;;16.86;100.00
65756;BME280;69208;47.502;18.940;2023-06-10T00:12:18;97768.41;;;16.89;100.00
65756;BME280;69208;47.502;18.940;2023-06-10T00:13:22;97761.94;;;16.86;100.00
65756;BME280;69208;47.502;18.940;2023-06-10T00:14:25;97760.75;;;16.83;100.00
65756;BME280;69208;47.502;18.940;2023-06-10T00:15:28;97762.94;;;16.81;100.00
65756;BME280;69208;47.502;18.940;2023-06-10T00:16:31;97765.09;;;16.76;100.00
65756;BME280;69208;47.502;18.940;2023-06-10T00:17:34;97768.56;;;16.80;100.00
65756;BME280;69208;47.502;18.940;2023-06-10T00:18:37;97771.91;;;16.77;100.00
65756;BME280;69208;47.502;18.940;2023-06-10T00:19:41;97766.28;;;16.78;100.00
65756;BME280;69208;47.502;18.940;2023-06-10T00:20:44;97765.41;;;16.74;100.00
65756;BME280;69208;47.502;18.940;2023-06-10T00:21:47;97771.47;;;16.75;100.00
65756;BME280;69208;47.502;18.940;2023-06-10T00:22:50;97764.97;;;16.72;100.00
65756;BME280;69208;47.502;18.940;2023-06-10T00:23:52;97761.22;;;16.73;100.00
65756;BME280;69208;47.502;18.940;2023-06-10T00:24:55;97759.25;;;16.70;100.00
65756;BME280;69208;47.502;18.940;2023-06-10T00:26:01;97758.72;;;16.65;100.00
65756;BME280;69208;47.502;18.940;2023-06-10T00:27:05;97754.22;;;16.65;100.00
65756;BME280;69208;47.502;18.940;2023-06-10T00:28:09;97762.94;;;16.66;100.00
65756;BME280;69208;47.502;18.940;2023-06-10T00:29:12;97760.28;;;16.66;100.00
65756;BME280;69208;47.502;18.940;2023-06-10T00:30:16;97759.50;;;16.65;100.00
65756;BME280;69208;47.502;18.940;2023-06-10T00:31:19;97760.97;;;16.63;100.00
65756;BME280;69208;47.502;18.940;2023-06-10T00:32:21;97753.56;;;16.68;100.00
65756;BME280;69208;47.502;18.940;2023-06-10T00:33:24;97751.56;;;16.65;100.00
65756;BME280;69208;47.502;18.940;2023-06-10T00:34:27;97754.13;;;16.61;100.00
65756;BME280;69208;47.502;18.940;2023-06-10T00:35:30;97751.84;;;16.60;100.00
65756;BME280;69208;47.502;18.940;2023-06-10T00:36:33;97751.66;;;16.53;100.00
65756;BME280;69208;47.502;18.940;2023-06-10T00:37:36;97742.44;;;16.47;100.00
65756;BME280;69208;47.502;18.940;2023-06-10T00:38:39;97755.66;;;16.47;100.00
65756;BME280;69208;47.502;18.940;2023-06-10T00:39:43;97751.56;;;16.49;100.00
65756;BME280;69208;47.502;18.940;2023-06-10T00:40:46;97756.41;;;16.47;100.00
65756;BME280;69208;47.502;18.940;2023-06-10T00:41:48;97757.63;;;16.50;100.00
65756;BME280;69208;47.502;18.940;2023-06-10T00:42:51;97757.28;;;16.51;100.00
65756;BME280;69208;47.502;18.940;2023-06-10T00:43:54;97758.72;;;16.49;100.00
65756;BME280;69208;47.502;18.940;2023-06-10T00:44:57;97767.34;;;16.46;100.00
65756;BME280;69208;47.502;18.940;2023-06-10T00:46:00;97768.19;;;16.34;100.00
65756;BME280;69208;47.502;18.940;2023-06-10T00:47:03;97766.06;;;16.40;100.00
65756;BME280;69208;47.502;18.940;2023-06-10T00:48:06;97768.03;;;16.43;100.00
65756;BME280;69208;47.502;18.940;2023-06-10T00:49:10;97765.63;;;16.37;100.00
65756;BME280;69208;47.502;18.940;2023-06-10T00:50:12;97768.63;;;16.36;100.00
65756;BME280;69208;47.502;18.940;2023-06-10T00:51:16;97757.94;;;16.32;100.00
65756;BME280;69208;47.502;18.940;2023-06-10T00:52:22;97762.13;;;16.33;100.00
65756;BME280;69208;47.502;18.940;2023-06-10T00:53:27;97760.09;;;16.27;100.00
65756;BME280;69208;47.502;18.940;2023-06-10T00:54:30;97758.63;;;16.29;100.00
65756;BME280;69208;47.502;18.940;2023-06-10T00:55:33;97766.13;;;16.27;100.00
65756;BME280;69208;47.502;18.940;2023-06-10T00:56:36;97761.25;;;16.29;100.00
65756;BME280;69208;47.502;18.940;2023-06-10T00:57:39;97764.34;;;16.31;100.00
65756;BME280;69208;47.502;18.940;2023-06-10T00:58:42;97768.09;;;16.30;100.00
65756;BME280;69208;47.502;18.940;2023-06-10T00:59:48;97776.44;;;16.32;100.00
65756;BME280;69208;47.502;18.940;2023-06-10T01:00:51;97765.47;;;16.30;100.00
65756;BME280;69208;47.502;18.940;2023-06-10T01:01:56;97764.50;;;16.23;100.00
65756;BME280;69208;47.502;18.940;2023-06-10T01:02:59;97769.34;;;16.21;100.00
65756;BME280;69208;47.502;18.940;2023-06-10T01:04:02;97764.69;;;16.30;100.00
65756;BME280;69208;47.502;18.940;2023-06-10T01:05:05;97759.41;;;16.30;100.00
65756;BME280;69208;47.502;18.940;2023-06-10T01:07:30;97773.38;;;16.30;100.00
65756;BME280;69208;47.502;18.940;2023-06-10T01:10:19;97762.72;;;16.27;100.00
65756;BME280;69208;47.502;18.940;2023-06-10T01:11:29;97759.56;;;16.21;100.00
65756;BME280;69208;47.502;18.940;2023-06-10T01:13:53;97758.88;;;16.24;100.00
65756;BME280;69208;47.502;18.940;2023-06-10T01:14:59;97765.31;;;16.11;100.00
65756;BME280;69208;47.502;18.940;2023-06-10T01:16:03;97760.47;;;16.13;100.00
65756;BME280;69208;47.502;18.940;2023-06-10T01:17:06;97759.72;;;16.12;100.00
65756;BME280;69208;47.502;18.940;2023-06-10T01:18:12;97763.13;;;16.13;100.00
65756;BME280;69208;47.502;18.940;2023-06-10T01:19:19;97760.78;;;16.11;100.00
65756;BME280;69208;47.502;18.940;2023-06-10T01:20:22;97769.66;;;16.03;100.00
65756;BME280;69208;47.502;18.940;2023-06-10T01:21:25;97759.41;;;16.02;100.00
65756;BME280;69208;47.502;18.940;2023-06-10T01:22:29;97762.81;;;16.02;100.00
65756;BME280;69208;47.502;18.940;2023-06-10T01:23:34;97762.66;;;16.11;100.00
65756;BME280;69208;47.502;18.940;2023-06-10T01:24:38;97769.66;;;16.03;100.00
65756;BME280;69208;47.502;18.940;2023-06-10T01:25:55;97765.38;;;15.99;100.00
65756;BME280;69208;47.502;18.940;2023-06-10T01:27:01;97765.06;;;16.00;100.00
65756;BME280;69208;47.502;18.940;2023-06-10T01:28:18;97765.91;;;16.04;100.00
65756;BME280;69208;47.502;18.940;2023-06-10T01:29:33;97769.66;;;16.03;100.00
65756;BME280;69208;47.502;18.940;2023-06-10T01:32:21;97764.84;;;15.93;100.00
65756;BME280;69208;47.502;18.940;2023-06-10T01:33:29;97769.94;;;15.86;100.00
65756;BME280;69208;47.502;18.940;2023-06-10T01:34:35;97768.37;;;15.85;100.00
65756;BME280;69208;47.502;18.940;2023-06-10T01:35:40;97758.34;;;15.90;100.00
65756;BME280;69208;47.502;18.940;2023-06-10T01:36:48;97772.09;;;15.96;100.00
65756;BME280;69208;47.502;18.940;2023-06-10T01:37:54;97764.59;;;15.98;100.00
65756;BME280;69208;47.502;18.940;2023-06-10T01:38:58;97771.91;;;15.89;100.00
65756;BME280;69208;47.502;18.940;2023-06-10T01:40:02;97769.38;;;15.92;100.00
65756;BME280;69208;47.502;18.940;2023-06-10T01:41:10;97765.97;;;15.92;100.00
65756;BME280;69208;47.502;18.940;2023-06-10T01:42:15;97771.78;;;15.98;100.00
65756;BME280;69208;47.502;18.940;2023-06-10T01:43:18;97767.94;;;15.95;100.00
65756;BME280;69208;47.502;18.940;2023-06-10T01:44:22;97762.56;;;15.91;100.00
65756;BME280;69208;47.502;18.940;2023-06-10T01:45:25;97767.03;;;15.91;100.00
65756;BME280;69208;47.502;18.940;2023-06-10T01:46:28;97765.34;;;15.83;100.00
65756;BME280;69208;47.502;18.940;2023-06-10T01:47:31;97760.13;;;15.86;100.00
65756;BME280;69208;47.502;18.940;2023-06-10T01:48:34;97763.53;;;15.87;100.00
65756;BME280;69208;47.502;18.940;2023-06-10T01:49:37;97771.69;;;15.82;100.00
65756;BME280;69208;47.502;18.940;2023-06-10T01:50:40;97773.47;;;15.78;100.00
65756;BME280;69208;47.502;18.940;2023-06-10T01:51:43;97766.34;;;15.66;100.00
65756;BME280;69208;47.502;18.940;2023-06-10T01:52:45;97759.66;;;15.68;100.00
65756;BME280;69208;47.502;18.940;2023-06-10T01:53:49;97761.53;;;15.68;100.00
65756;BME280;69208;47.502;18.940;2023-06-10T01:54:51;97762.06;;;15.74;100.00
65756;BME280;69208;47.502;18.940;2023-06-10T01:55:54;97762.25;;;15.81;100.00
65756;BME280;69208;47.502;18.940;2023-06-10T01:56:57;97760.03;;;15.83;100.00
65756;BME280;69208;47.502;18.940;2023-06-10T01:57:59;97770.06;;;15.77;100.00
65756;BME280;69208;47.502;18.940;2023-06-10T01:59:02;97768.97;;;15.78;100.00
65756;BME280;69208;47.502;18.940;2023-06-10T02:00:05;97761.47;;;15.80;100.00
65756;BME280;69208;47.502;18.940;2023-06-10T02:01:09;97770.84;;;15.78;100.00
65756;BME280;69208;47.502;18.940;2023-06-10T02:02:12;97768.53;;;15.76;100.00
65756;BME280;69208;47.502;18.940;2023-06-10T02:03:14;97768.53;;;15.76;100.00
65756;BME280;69208;47.502;18.940;2023-06-10T02:04:17;97769.19;;;15.73;100.00
65756;BME280;69208;47.502;18.940;2023-06-10T02:05:21;97763.25;;;15.76;100.00
65756;BME280;69208;47.502;18.940;2023-06-10T02:06:23;97765.22;;;15.79;100.00
65756;BME280;69208;47.502;18.940;2023-06-10T02:07:26;97762.03;;;15.61;100.00
65756;BME280;69208;47.502;18.940;2023-06-10T02:08:29;97763.81;;;15.69;100.00
65756;BME280;69208;47.502;18.940;2023-06-10T02:09:32;97761.28;;;15.73;100.00
65756;BME280;69208;47.502;18.940;2023-06-10T02:10:37;97765.38;;;15.71;100.00
65756;BME280;69208;47.502;18.940;2023-06-10T02:11:40;97768.78;;;15.71;100.00
65756;BME280;69208;47.502;18.940;2023-06-10T02:12:43;97762.16;;;15.77;100.00
65756;BME280;69208;47.502;18.940;2023-06-10T02:13:46;97761.72;;;15.75;100.00
65756;BME280;69208;47.502;18.940;2023-06-10T02:14:48;97760.09;;;15.71;100.00
65756;BME280;69208;47.502;18.940;2023-06-10T02:15:51;97761.72;;;15.63;100.00
65756;BME280;69208;47.502;18.940;2023-06-10T02:16:56;97761.81;;;15.66;100.00
65756;BME280;69208;47.502;18.940;2023-06-10T02:18:00;97767.56;;;15.68;100.00
65756;BME280;69208;47.502;18.940;2023-06-10T02:19:03;97768.09;;;15.74;100.00
65756;BME280;69208;47.502;18.940;2023-06-10T02:20:09;97771.16;;;15.76;100.00
65756;BME280;69208;47.502;18.940;2023-06-10T02:21:13;97762.81;;;15.74;100.00
65756;BME280;69208;47.502;18.940;2023-06-10T02:22:15;97765.88;;;15.76;100.00
65756;BME280;69208;47.502;18.940;2023-06-10T02:23:18;97765.78;;;15.73;100.00
65756;BME280;69208;47.502;18.940;2023-06-10T02:24:21;97759.75;;;15.72;100.00
65756;BME280;69208;47.502;18.940;2023-06-10T02:25:24;97769.88;;;15.70;100.00
65756;BME280;69208;47.502;18.940;2023-06-10T02:26:26;97764.94;;;15.68;100.00
65756;BME280;69208;47.502;18.940;2023-06-10T02:27:29;97768.97;;;15.66;100.00
65756;BME280;69208;47.502;18.940;2023-06-10T02:28:33;97766.91;;;15.59;100.00
65756;BME280;69208;47.502;18.940;2023-06-10T02:29:36;97764.00;;;15.64;100.00
65756;BME280;69208;47.502;18.940;2023-06-10T02:30:42;97765.56;;;15.65;100.00
65756;BME280;69208;47.502;18.940;2023-06-10T02:31:45;97760.97;;;15.62;100.00
65756;BME280;69208;47.502;18.940;2023-06-10T02:32:47;97764.81;;;15.65;100.00
65756;BME280;69208;47.502;18.940;2023-06-10T02:33:51;97770.09;;;15.65;100.00
65756;BME280;69208;47.502;18.940;2023-06-10T02:34:53;97764.38;;;15.63;100.00
65756;BME280;69208;47.502;18.940;2023-06-10T02:35:56;97763.91;;;15.61;100.00
65756;BME280;69208;47.502;18.940;2023-06-10T02:36:59;97764.00;;;15.64;100.00
65756;BME280;69208;47.502;18.940;2023-06-10T02:38:02;97767.44;;;15.65;100.00
65756;BME280;69208;47.502;18.940;2023-06-10T02:39:05;97760.87;;;15.46;100.00
65756;BME280;69208;47.502;18.940;2023-06-10T02:40:08;97766.78;;;15.56;100.00
65756;BME280;69208;47.502;18.940;2023-06-10T02:41:12;97763.81;;;15.69;100.00
65756;BME280;69208;47.502;18.940;2023-06-10T02:42:15;97764.25;;;15.72;100.00
65756;BME280;69208;47.502;18.940;2023-06-10T02:43:18;97766.69;;;15.77;100.00
65756;BME280;69208;47.502;18.940;2023-06-10T02:44:21;97767.00;;;15.75;100.00
65756;BME280;69208;47.502;18.940;2023-06-10T02:45:24;97764.34;;;15.75;100.00
65756;BME280;69208;47.502;18.940;2023-06-10T02:46:27;97768.00;;;15.71;100.00
65756;BME280;69208;47.502;18.940;2023-06-10T02:47:31;97768.97;;;15.66;100.00
65756;BME280;69208;47.502;18.940;2023-06-10T02:48:41;97772.19;;;15.72;100.00
65756;BME280;69208;47.502;18.940;2023-06-10T02:49:45;97773.28;;;15.71;100.00
65756;BME280;69208;47.502;18.940;2023-06-10T02:50:48;97771.41;;;15.71;100.00
65756;BME280;69208;47.502;18.940;2023-06-10T02:51:50;97778.84;;;15.81;100.00
65756;BME280;69208;47.502;18.940;2023-06-10T02:52:56;97780.97;;;15.76;100.00
65756;BME280;69208;47.502;18.940;2023-06-10T02:53:59;97774.47;;;15.73;100.00
65756;BME280;69208;47.502;18.940;2023-06-10T02:55:01;97774.91;;;15.75;100.00
65756;BME280;69208;47.502;18.940;2023-06-10T02:56:04;97779.22;;;15.67;100.00
65756;BME280;69208;47.502;18.940;2023-06-10T02:57:07;97782.00;;;15.59;100.00
65756;BME280;69208;47.502;18.940;2023-06-10T02:58:10;97781.53;;;15.69;100.00
65756;BME280;69208;47.502;18.940;2023-06-10T02:59:13;97782.94;;;15.66;100.00
65756;BME280;69208;47.502;18.940;2023-06-10T03:00:16;97780.00;;;15.68;100.00
65756;BME280;69208;47.502;18.940;2023-06-10T03:01:19;97777.56;;;15.75;100.00
65756;BME280;69208;47.502;18.940;2023-06-10T03:02:22;97782.41;;;15.73;100.00
65756;BME280;69208;47.502;18.940;2023-06-10T03:03:30;97780.97;;;15.76;100.00
65756;BME280;69208;47.502;18.940;2023-06-10T03:04:37;97781.63;;;15.73;100.00
65756;BME280;69208;47.502;18.940;2023-06-10T03:05:40;97779.75;;;15.73;100.00
65756;BME280;69208;47.502;18.940;2023-06-10T03:06:43;97780.19;;;15.75;100.00
65756;BME280;69208;47.502;18.940;2023-06-10T03:07:48;97780.56;;;15.74;100.00
65756;BME280;69208;47.502;18.940;2023-06-10T03:08:50;97770.22;;;15.68;100.00
65756;BME280;69208;47.502;18.940;2023-06-10T03:09:53;97781.72;;;15.76;100.00
65756;BME280;69208;47.502;18.940;2023-06-10T03:10:56;97775.44;;;15.81;100.00
65756;BME280;69208;47.502;18.940;2023-06-10T03:11:59;97777.09;;;15.85;100.00
65756;BME280;69208;47.502;18.940;2023-06-10T03:13:03;97773.56;;;15.81;100.00
65756;BME280;69208;47.502;18.940;2023-06-10T03:14:05;97776.97;;;15.82;100.00
65756;BME280;69208;47.502;18.940;2023-06-10T03:15:08;97770.16;;;15.81;100.00
65756;BME280;69208;47.502;18.940;2023-06-10T03:16:12;97772.62;;;15.74;100.00
65756;BME280;69208;47.502;18.940;2023-06-10T03:17:15;97768.19;;;15.78;100.00
65756;BME280;69208;47.502;18.940;2023-06-10T03:18:17;97773.47;;;15.78;100.00
65756;BME280;69208;47.502;18.940;2023-06-10T03:19:20;97771.28;;;15.80;100.00
65756;BME280;69208;47.502;18.940;2023-06-10T03:20:23;97771.59;;;15.78;100.00
65756;BME280;69208;47.502;18.940;2023-06-10T03:21:28;97777.34;;;15.80;100.00
65756;BME280;69208;47.502;18.940;2023-06-10T03:22:31;97782.47;;;15.89;100.00
65756;BME280;69208;47.502;18.940;2023-06-10T03:23:34;97784.69;;;15.87;100.00
65756;BME280;69208;47.502;18.940;2023-06-10T03:24:37;97776.16;;;15.93;100.00
65756;BME280;69208;47.502;18.940;2023-06-10T03:25:42;97776.84;;;15.90;100.00
65756;BME280;69208;47.502;18.940;2023-06-10T03:26:45;97782.22;;;15.94;100.00
65756;BME280;69208;47.502;18.940;2023-06-10T03:27:48;97787.84;;;15.92;100.00
65756;BME280;69208;47.502;18.940;2023-06-10T03:28:51;97786.50;;;15.99;100.00
65756;BME280;69208;47.502;18.940;2023-06-10T03:29:54;97786.75;;;15.93;100.00
65756;BME280;69208;47.502;18.940;2023-06-10T03:30:57;97784.00;;;15.90;100.00
65756;BME280;69208;47.502;18.940;2023-06-10T03:32:00;97777.72;;;15.95;100.00
65756;BME280;69208;47.502;18.940;2023-06-10T03:33:02;97784.84;;;15.94;100.00
65756;BME280;69208;47.502;18.940;2023-06-10T03:34:05;97783.09;;;15.98;100.00
65756;BME280;69208;47.502;18.940;2023-06-10T03:35:08;97786.19;;;16.00;100.00
65756;BME280;69208;47.502;18.940;2023-06-10T03:36:11;97780.91;;;16.00;100.00
65756;BME280;69208;47.502;18.940;2023-06-10T03:37:14;97789.16;;;15.99;100.00
65756;BME280;69208;47.502;18.940;2023-06-10T03:38:17;97783.53;;;16.00;100.00
65756;BME280;69208;47.502;18.940;2023-06-10T03:39:20;97783.53;;;16.00;100.00
65756;BME280;69208;47.502;18.940;2023-06-10T03:40:22;97783.72;;;16.07;100.00
65756;BME280;69208;47.502;18.940;2023-06-10T03:41:25;97789.34;;;16.06;100.00
65756;BME280;69208;47.502;18.940;2023-06-10T03:42:29;97790.00;;;16.03;100.00
65756;BME280;69208;47.502;18.940;2023-06-10T03:43:32;97786.69;;;16.06;100.00
65756;BME280;69208;47.502;18.940;2023-06-10T03:44:35;97783.06;;;16.10;100.00
65756;BME280;69208;47.502;18.940;2023-06-10T03:45:38;97788.34;;;16.10;100.00
65756;BME280;69208;47.502;18.940;2023-06-10T03:46:41;97782.87;;;16.03;100.00
65756;BME280;69208;47.502;18.940;2023-06-10T03:47:44;97786.94;;;16.01;100.00
65756;BME280;69208;47.502;18.940;2023-06-10T03:48:47;97780.56;;;16.02;100.00
65756;BME280;69208;47.502;18.940;2023-06-10T03:49:50;97787.12;;;16.08;100.00
65756;BME280;69208;47.502;18.940;2023-06-10T03:50:53;97786.38;;;16.07;100.00
65756;BME280;69208;47.502;18.940;2023-06-10T03:51:56;97784.25;;;16.13;100.00
65756;BME280;69208;47.502;18.940;2023-06-10T03:52:59;97785.09;;;16.17;100.00
65756;BME280;69208;47.502;18.940;2023-06-10T03:54:02;97784.19;;;16.25;100.00
65756;BME280;69208;47.502;18.940;2023-06-10T03:55:05;97778.59;;;16.27;100.00
65756;BME280;69208;47.502;18.940;2023-06-10T03:56:09;97785.56;;;16.35;100.00
65756;BME280;69208;47.502;18.940;2023-06-10T03:57:12;97777.56;;;16.31;100.00
65756;BME280;69208;47.502;18.940;2023-06-10T03:58:15;97788.47;;;16.30;100.00
65756;BME280;69208;47.502;18.940;2023-06-10T03:59:17;97785.03;;;16.29;100.00
65756;BME280;69208;47.502;18.940;2023-06-10T04:00:20;97784.03;;;16.34;100.00
65756;BME280;69208;47.502;18.940;2023-06-10T04:01:24;97782.16;;;16.34;100.00
65756;BME280;69208;47.502;18.940;2023-06-10T04:02:27;97779.03;;;16.45;100.00
65756;BME280;69208;47.502;18.940;2023-06-10T04:03:29;97786.12;;;16.56;100.00
65756;BME280;69208;47.502;18.940;2023-06-10T04:04:32;97787.12;;;16.52;100.00
65756;BME280;69208;47.502;18.940;2023-06-10T04:05:35;97785.25;;;16.52;100.00
65756;BME280;69208;47.502;18.940;2023-06-10T04:06:38;97785.63;;;16.51;100.00
65756;BME280;69208;47.502;18.940;2023-06-10T04:07:41;97789.03;;;16.51;100.00
65756;BME280;69208;47.502;18.940;2023-06-10T04:08:45;97783.13;;;16.58;100.00
65756;BME280;69208;47.502;18.940;2023-06-10T04:09:47;97776.22;;;16.69;100.00
65756;BME280;69208;47.502;18.940;2023-06-10T04:10:50;97779.31;;;16.71;100.00
65756;BME280;69208;47.502;18.940;2023-06-10T04:11:53;97778.00;;;16.65;100.00
65756;BME280;69208;47.502;18.940;2023-06-10T04:12:55;97778.81;;;16.66;100.00
65756;BME280;69208;47.502;18.940;2023-06-10T04:13:58;97777.34;;;16.68;100.00
65756;BME280;69208;47.502;18.940;2023-06-10T04:15:02;97775.56;;;16.72;100.00
65756;BME280;69208;47.502;18.940;2023-06-10T04:16:05;97774.03;;;16.71;100.00
65756;BME280;69208;47.502;18.940;2023-06-10T04:17:08;97776.31;;;16.73;100.00
65756;BME280;69208;47.502;18.940;2023-06-10T04:18:11;97769.16;;;16.73;100.00
65756;BME280;69208;47.502;18.940;2023-06-10T04:19:14;97773.66;;;16.73;100.00
65756;BME280;69208;47.502;18.940;2023-06-10T04:20:18;97774.53;;;16.77;100.00
65756;BME280;69208;47.502;18.940;2023-06-10T04:21:20;97776.69;;;16.87;100.00
65756;BME280;69208;47.502;18.940;2023-06-10T04:22:24;97771.41;;;16.87;100.00
65756;BME280;69208;47.502;18.940;2023-06-10T04:23:28;97774.97;;;16.79;100.00
65756;BME280;69208;47.502;18.940;2023-06-10T04:24:31;97777.97;;;16.77;100.00
65756;BME280;69208;47.502;18.940;2023-06-10T04:25:33;97778.19;;;16.72;100.00
65756;BME280;69208;47.502;18.940;2023-06-10T04:26:36;97772.22;;;16.75;100.00
65756;BME280;69208;47.502;18.940;2023-06-10T04:27:39;97773.53;;;16.81;100.00
65756;BME280;69208;47.502;18.940;2023-06-10T04:28:45;97768.25;;;16.81;100.00
65756;BME280;69208;47.502;18.940;2023-06-10T04:29:47;97774.28;;;16.82;100.00
65756;BME280;69208;47.502;18.940;2023-06-10T04:30:50;97779.16;;;16.80;100.00
65756;BME280;69208;47.502;18.940;2023-06-10T04:31:53;97773.78;;;16.76;100.00
65756;BME280;69208;47.502;18.940;2023-06-10T04:32:56;97781.38;;;16.78;100.00
65756;BME280;69208;47.502;18.940;2023-06-10T04:33:59;97775.19;;;16.74;100.00
65756;BME280;69208;47.502;18.940;2023-06-10T04:35:04;97770.13;;;16.81;100.00
65756;BME280;69208;47.502;18.940;2023-06-10T04:36:07;97774.97;;;16.79;100.00
65756;BME280;69208;47.502;18.940;2023-06-10T04:37:10;97769.25;;;16.77;100.00
65756;BME280;69208;47.502;18.940;2023-06-10T04:38:13;97766.28;;;16.78;100.00
65756;BME280;69208;47.502;18.940;2023-06-10T04:39:16;97772.34;;;16.79;100.00
65756;BME280;69208;47.502;18.940;2023-06-10T04:40:19;97775.25;;;16.90;100.00
65756;BME280;69208;47.502;18.940;2023-06-10T04:41:22;97771.56;;;16.94;100.00
65756;BME280;69208;47.502;18.940;2023-06-10T04:42:24;97770.19;;;16.85;100.00
65756;BME280;69208;47.502;18.940;2023-06-10T04:43:28;97772.59;;;16.90;100.00
65756;BME280;69208;47.502;18.940;2023-06-10T04:44:31;97771.66;;;16.98;100.00
65756;BME280;69208;47.502;18.940;2023-06-10T04:45:34;97776.94;;;16.98;100.00
65756;BME280;69208;47.502;18.940;2023-06-10T04:46:36;97768.22;;;16.97;100.00
65756;BME280;69208;47.502;18.940;2023-06-10T04:47:40;97777.72;;;16.98;100.00
65756;BME280;69208;47.502;18.940;2023-06-10T04:48:42;97774.72;;;17.00;100.00
65756;BME280;69208;47.502;18.940;2023-06-10T04:49:47;97767.53;;;17.00;100.00
65756;BME280;69208;47.502;18.940;2023-06-10T04:50:50;97773.19;;;16.99;100.00
65756;BME280;69208;47.502;18.940;2023-06-10T04:51:53;97776.59;;;16.99;100.00
65756;BME280;69208;47.502;18.940;2023-06-10T04:52:55;97774.78;;;17.03;100.00
65756;BME280;69208;47.502;18.940;2023-06-10T04:53:59;97770.28;;;17.04;100.00
65756;BME280;69208;47.502;18.940;2023-06-10T04:55:06;97767.53;;;17.16;100.00
65756;BME280;69208;47.502;18.940;2023-06-10T04:56:10;97773.91;;;17.15;100.00
65756;BME280;69208;47.502;18.940;2023-06-10T04:57:12;97774.28;;;17.14;100.00
65756;BME280;69208;47.502;18.940;2023-06-10T04:58:15;97776.37;;;17.24;100.00
65756;BME280;69208;47.502;18.940;2023-06-10T04:59:18;97775.87;;;17.18;100.00
65756;BME280;69208;47.502;18.940;2023-06-10T05:00:20;97781.78;;;17.12;100.00
65756;BME280;69208;47.502;18.940;2023-06-10T05:01:23;97775.72;;;17.11;100.00
65756;BME280;69208;47.502;18.940;2023-06-10T05:02:26;97775.28;;;17.09;100.00
65756;BME280;69208;47.502;18.940;2023-06-10T05:03:29;97780.69;;;17.13;100.00
65756;BME280;69208;47.502;18.940;2023-06-10T05:04:32;97770.00;;;17.09;100.00
65756;BME280;69208;47.502;18.940;2023-06-10T05:05:35;97778.38;;;17.11;100.00
65756;BME280;69208;47.502;18.940;2023-06-10T05:06:38;97781.38;;;17.10;100.00
65756;BME280;69208;47.502;18.940;2023-06-10T05:07:40;97781.00;;;17.11;100.00
65756;BME280;69208;47.502;18.940;2023-06-10T05:08:43;97785.53;;;17.11;100.00
65756;BME280;69208;47.502;18.940;2023-06-10T05:09:46;97787.59;;;17.17;100.00
65756;BME280;69208;47.502;18.940;2023-06-10T05:10:49;97782.72;;;17.19;100.00
65756;BME280;69208;47.502;18.940;2023-06-10T05:11:52;97785.69;;;17.18;100.00
65756;BME280;69208;47.502;18.940;2023-06-10T05:12:56;97785.63;;;17.14;100.00
65756;BME280;69208;47.502;18.940;2023-06-10T05:13:58;97787.16;;;17.15;100.00
65756;BME280;69208;47.502;18.940;2023-06-10T05:15:01;97792.19;;;17.20;100.00
65756;BME280;69208;47.502;18.940;2023-06-10T05:16:04;97791.06;;;17.21;100.00
65756;BME280;69208;47.502;18.940;2023-06-10T05:17:06;97788.91;;;17.27;100.00
65756;BME280;69208;47.502;18.940;2023-06-10T05:18:10;97789.03;;;17.31;100.00
65756;BME280;69208;47.502;18.940;2023-06-10T05:19:13;97788.34;;;17.34;100.00
65756;BME280;69208;47.502;18.940;2023-06-10T05:20:18;97789.66;;;17.43;100.00
65756;BME280;69208;47.502;18.940;2023-06-10T05:21:21;97784.00;;;17.45;100.00
65756;BME280;69208;47.502;18.940;2023-06-10T05:22:23;97785.50;;;17.42;100.00
65756;BME280;69208;47.502;18.940;2023-06-10T05:23:27;97791.25;;;17.48;100.00
65756;BME280;69208;47.502;18.940;2023-06-10T05:24:29;97786.59;;;17.41;100.00
65756;BME280;69208;47.502;18.940;2023-06-10T05:25:33;97791.56;;;17.43;100.00
65756;BME280;69208;47.502;18.940;2023-06-10T05:26:35;97791.13;;;17.41;100.00
65756;BME280;69208;47.502;18.940;2023-06-10T05:27:41;97792.75;;;17.45;100.00
65756;BME280;69208;47.502;18.940;2023-06-10T05:28:44;97794.97;;;17.43;100.00
65756;BME280;69208;47.502;18.940;2023-06-10T05:29:47;97794.78;;;17.52;100.00
65756;BME280;69208;47.502;18.940;2023-06-10T05:30:51;97800.38;;;17.66;100.00
65756;BME280;69208;47.502;18.940;2023-06-10T05:31:54;97791.81;;;17.73;100.00
65756;BME280;69208;47.502;18.940;2023-06-10T05:32:59;97799.38;;;17.74;100.00
65756;BME280;69208;47.502;18.940;2023-06-10T05:34:02;97795.03;;;17.82;100.00